Terminal Aerodrome Forecast
Issued by NWS

Home | Current Version | Previous Version | Text Only | Print | Product List | Glossary On
Versions: 1 2 3 4 5 6 7 8 9 10 11 12 13 14 15
000
FTUS45 KABQ 281100
TAFTCC
TAF
KTCC 281138Z 2812/2912 28006KT P6SM SCT090
     FM281800 25010KT P6SM FEW090
     FM282100 25012G20KT P6SM SCT080
     FM282300 25015G22KT P6SM VCSH SCT080
     FM290200 04010G16KT P6SM SCT080
     FM290600 01006KT P6SM FEW080=

USA.gov is the U.S. government's official web portal to all federal, state and local government web resources and services.